createdAt,value
2023-11-23T00:01:45.938Z,101273.85
2023-11-23T00:04:13.801Z,101266.14
2023-11-23T00:06:41.543Z,101263.20
2023-11-23T00:09:10.730Z,101252.91
2023-11-23T00:11:42.267Z,101254.32
2023-11-23T00:14:09.938Z,101248.19
2023-11-23T00:16:37.923Z,101253.40
2023-11-23T00:19:06.507Z,101260.30
2023-11-23T00:21:34.043Z,101257.70
2023-11-23T00:24:02.609Z,101253.58
2023-11-23T00:26:30.304Z,101257.00
2023-11-23T00:28:59.864Z,101262.34
2023-11-23T00:31:27.733Z,101261.38
2023-11-23T00:33:55.665Z,101262.61
2023-11-23T00:36:23.672Z,101263.17
2023-11-23T00:38:51.468Z,101262.88
2023-11-23T00:41:19.305Z,101257.96
2023-11-23T00:43:47.064Z,101250.45
2023-11-23T00:46:16.813Z,101250.46
2023-11-23T00:48:44.565Z,101243.80
2023-11-23T00:51:12.280Z,101235.77
2023-11-23T00:53:43.756Z,101223.11
2023-11-23T00:56:12.240Z,101219.35
2023-11-23T00:58:40.210Z,101224.17
2023-11-23T01:01:08.631Z,101229.70
2023-11-23T01:03:37.413Z,101226.27
2023-11-23T01:06:05.494Z,101226.45
2023-11-23T01:08:33.621Z,101227.86
2023-11-23T01:11:02.840Z,101227.02
2023-11-23T01:13:31.052Z,101213.97
2023-11-23T01:15:58.860Z,101213.45
2023-11-23T01:18:26.516Z,101211.92
2023-11-23T01:20:54.281Z,101215.52
2023-11-23T01:23:22.924Z,101221.00
2023-11-23T01:25:50.481Z,101211.39
2023-11-23T01:28:18.093Z,101195.61
2023-11-23T01:30:46.266Z,101191.83
2023-11-23T01:33:14.594Z,101188.21
2023-11-23T01:35:42.449Z,101185.47
2023-11-23T01:38:10.534Z,101176.23
2023-11-23T01:40:38.148Z,101174.56
2023-11-23T01:43:11.667Z,101172.73
2023-11-23T01:45:39.738Z,101173.45
2023-11-23T01:48:16.258Z,101170.08
2023-11-23T01:50:46.140Z,101172.69
2023-11-23T01:53:13.865Z,101183.33
2023-11-23T01:55:41.391Z,101182.16
2023-11-23T01:58:09.087Z,101178.73
2023-11-23T02:00:38.245Z,101179.09
2023-11-23T02:03:13.377Z,101172.91
2023-11-23T02:05:41.340Z,101167.41
2023-11-23T02:08:09.054Z,101169.13
2023-11-23T02:10:36.615Z,101166.73
2023-11-23T02:13:08.066Z,101167.96
2023-11-23T02:15:38.764Z,101166.77
2023-11-23T02:18:08.793Z,101161.28
2023-11-23T02:20:36.889Z,101156.29
2023-11-23T02:23:05.382Z,101153.03
2023-11-23T02:25:33.034Z,101151.80
2023-11-23T02:28:00.692Z,101152.65
2023-11-23T02:30:28.422Z,101147.83
2023-11-23T02:32:57.756Z,101143.37
2023-11-23T02:35:27.208Z,101134.10
2023-11-23T02:37:55.234Z,101133.56
2023-11-23T02:40:23.052Z,101129.94
2023-11-23T02:42:50.668Z,101135.26
2023-11-23T02:45:20.423Z,101138.00
2023-11-23T02:47:49.497Z,101138.20
2023-11-23T02:50:17.466Z,101136.14
2023-11-23T02:52:45.107Z,101136.66
2023-11-23T02:55:12.969Z,101130.96
2023-11-23T02:57:44.415Z,101128.86
2023-11-23T03:00:13.762Z,101125.58
2023-11-23T03:02:41.663Z,101127.61
2023-11-23T03:05:13.590Z,101126.38
2023-11-23T03:07:41.325Z,101124.45
2023-11-23T03:10:11.050Z,101128.17
2023-11-23T03:12:38.542Z,101129.14
2023-11-23T03:15:06.698Z,101122.41
2023-11-23T03:17:35.482Z,101122.55
2023-11-23T03:20:04.438Z,101114.98
2023-11-23T03:22:32.513Z,101110.51
2023-11-23T03:25:00.478Z,101109.91
2023-11-23T03:27:28.044Z,101103.38
2023-11-23T03:29:55.825Z,101091.02
2023-11-23T03:32:26.764Z,101087.77
2023-11-23T03:34:54.430Z,101093.08
2023-11-23T03:37:23.298Z,101098.09
2023-11-23T03:39:50.850Z,101083.73
2023-11-23T03:42:18.681Z,101081.78
2023-11-23T03:44:46.460Z,101071.91
2023-11-23T03:47:14.162Z,101056.90
2023-11-23T03:49:41.709Z,101048.13
2023-11-23T03:52:09.369Z,101047.52
2023-11-23T03:54:37.446Z,101031.09
2023-11-23T03:57:08.000Z,101018.58
2023-11-23T03:59:35.947Z,101016.58
2023-11-23T04:02:04.867Z,101013.02
2023-11-23T04:04:32.587Z,101014.27
2023-11-23T04:07:00.270Z,101010.88
2023-11-23T04:09:28.057Z,101013.16
2023-11-23T04:11:55.814Z,101005.84
2023-11-23T04:14:23.661Z,100999.38
2023-11-23T04:16:51.479Z,100990.86
2023-11-23T04:19:19.032Z,100996.96
2023-11-23T04:21:47.976Z,100999.42
2023-11-23T04:24:15.981Z,100987.27
2023-11-23T04:26:43.626Z,100980.08
2023-11-23T04:29:11.238Z,100979.73
2023-11-23T04:31:38.941Z,100983.87
2023-11-23T04:34:06.655Z,100986.30
2023-11-23T04:36:35.588Z,100982.52
2023-11-23T04:39:03.180Z,100984.60
2023-11-23T04:41:30.879Z,100971.23
2023-11-23T04:43:58.685Z,100962.66
2023-11-23T04:46:26.473Z,100961.33
2023-11-23T04:48:54.441Z,100965.30
2023-11-23T04:51:22.109Z,100965.81
2023-11-23T04:53:49.660Z,100967.54
2023-11-23T04:56:17.561Z,100970.98
2023-11-23T04:58:47.042Z,100978.67
2023-11-23T05:01:14.705Z,100971.80
2023-11-23T05:03:42.549Z,100971.12
2023-11-23T05:06:10.540Z,100977.70
2023-11-23T05:08:38.290Z,100978.11
2023-11-23T05:11:06.055Z,100974.02
2023-11-23T05:13:34.256Z,100966.80
2023-11-23T05:16:02.075Z,100959.52
2023-11-23T05:18:29.765Z,100950.30
2023-11-23T05:20:58.232Z,100939.77
2023-11-23T05:23:25.938Z,100932.29
2023-11-23T05:25:53.981Z,100924.13
2023-11-23T05:28:22.949Z,100922.74
2023-11-23T05:30:51.080Z,100917.67
2023-11-23T05:33:18.914Z,100912.61
2023-11-23T05:35:47.039Z,100908.48
2023-11-23T05:38:14.693Z,100900.00
2023-11-23T05:40:42.237Z,100895.16
2023-11-23T05:43:10.060Z,100886.05
2023-11-23T05:45:37.811Z,100884.36
2023-11-23T05:48:07.401Z,100884.38
2023-11-23T05:50:35.159Z,100885.34
2023-11-23T05:53:02.868Z,100877.34
2023-11-23T05:55:30.365Z,100874.63
2023-11-23T05:57:57.967Z,100876.87
2023-11-23T06:00:26.422Z,100870.24
2023-11-23T06:02:54.516Z,100872.70
2023-11-23T06:05:22.349Z,100868.39
2023-11-23T06:07:49.946Z,100862.52
2023-11-23T06:10:17.860Z,100856.48
2023-11-23T06:12:45.680Z,100847.00
2023-11-23T06:15:13.365Z,100842.05
2023-11-23T06:17:41.464Z,100842.23
2023-11-23T06:20:10.048Z,100838.22
2023-11-23T06:22:37.900Z,100831.49
2023-11-23T06:25:08.819Z,100821.76
2023-11-23T06:27:37.284Z,100819.45
2023-11-23T06:30:06.985Z,100813.42
2023-11-23T06:32:34.884Z,100807.20
2023-11-23T06:35:02.632Z,100801.76
2023-11-23T06:37:30.233Z,100795.30
2023-11-23T06:39:58.562Z,100788.82
2023-11-23T06:42:26.286Z,100791.14
2023-11-23T06:44:55.439Z,100794.08
2023-11-23T06:47:22.936Z,100802.70
2023-11-23T06:49:50.855Z,100808.40
2023-11-23T06:52:22.154Z,100798.41
2023-11-23T06:54:49.985Z,100796.25
2023-11-23T06:57:17.674Z,100800.73
2023-11-23T06:59:45.900Z,100802.45
2023-11-23T07:02:13.558Z,100800.75
2023-11-23T07:04:45.695Z,100795.04
2023-11-23T07:07:14.326Z,100789.11
2023-11-23T07:09:41.867Z,100780.34
2023-11-23T07:12:10.301Z,100778.65
2023-11-23T07:14:42.948Z,100763.02
2023-11-23T07:17:10.651Z,100754.94
2023-11-23T07:19:38.111Z,100745.11
2023-11-23T07:22:05.637Z,100746.77
2023-11-23T07:24:36.676Z,100735.91
2023-11-23T07:27:04.877Z,100719.37
2023-11-23T07:29:33.221Z,100713.14
2023-11-23T07:32:01.097Z,100706.43
2023-11-23T07:34:29.890Z,100703.15
2023-11-23T07:36:57.577Z,100695.17
2023-11-23T07:39:25.446Z,100676.42
2023-11-23T07:41:53.439Z,100673.04
2023-11-23T07:44:22.081Z,100676.80
2023-11-23T07:46:49.642Z,100672.39
2023-11-23T07:49:17.994Z,100656.23
2023-11-23T07:51:45.524Z,100652.08
2023-11-23T07:54:13.034Z,100644.80
2023-11-23T07:56:42.314Z,100630.79
2023-11-23T07:59:09.775Z,100632.42
2023-11-23T08:01:37.314Z,100632.59
2023-11-23T08:04:05.157Z,100629.38
2023-11-23T08:06:33.652Z,100611.01
2023-11-23T08:09:01.405Z,100600.45
2023-11-23T08:11:30.037Z,100599.79
2023-11-23T08:14:01.416Z,100595.02
2023-11-23T08:16:29.267Z,100581.30
2023-11-23T08:18:59.526Z,100563.50
2023-11-23T08:21:27.478Z,100565.72
2023-11-23T08:23:56.232Z,100572.21
2023-11-23T08:26:23.778Z,100562.95
2023-11-23T08:28:51.346Z,100569.18
2023-11-23T08:31:19.348Z,100563.21
2023-11-23T08:33:52.602Z,100551.21
2023-11-23T08:36:20.486Z,100548.25
2023-11-23T08:38:48.285Z,100551.96
2023-11-23T08:41:19.767Z,100548.70
2023-11-23T08:43:49.981Z,100548.17
2023-11-23T08:46:18.604Z,100557.14
2023-11-23T08:48:46.575Z,100542.22
2023-11-23T08:51:15.006Z,100529.27
2023-11-23T08:53:42.617Z,100518.77
2023-11-23T08:56:10.171Z,100512.31
2023-11-23T08:58:37.838Z,100515.45
2023-11-23T09:01:06.320Z,100496.64
2023-11-23T09:03:34.191Z,100493.38
2023-11-23T09:06:01.951Z,100483.90
2023-11-23T09:08:29.712Z,100480.27
2023-11-23T09:10:57.204Z,100478.59
2023-11-23T09:13:27.362Z,100471.41
2023-11-23T09:15:55.742Z,100464.14
2023-11-23T09:18:23.785Z,100461.05
2023-11-23T09:20:52.687Z,100448.87
2023-11-23T09:23:20.456Z,100449.81
2023-11-23T09:25:48.057Z,100449.49
2023-11-23T09:28:15.927Z,100443.21
2023-11-23T09:30:43.604Z,100433.23
2023-11-23T09:33:16.548Z,100419.71
2023-11-23T09:35:46.802Z,100413.47
2023-11-23T09:38:14.362Z,100414.65
2023-11-23T09:40:42.372Z,100419.76
2023-11-23T09:43:10.963Z,100426.78
2023-11-23T09:45:38.773Z,100429.79
2023-11-23T09:48:06.774Z,100411.73
2023-11-23T09:50:37.942Z,100391.95
2023-11-23T09:53:08.017Z,100379.59
2023-11-23T09:55:35.683Z,100349.30
2023-11-23T09:58:06.089Z,100334.77
2023-11-23T10:00:37.381Z,100300.45
2023-11-23T10:03:08.704Z,100292.15
2023-11-23T10:05:36.565Z,100290.20
2023-11-23T10:08:05.657Z,100272.89
2023-11-23T10:10:33.266Z,100275.92
2023-11-23T10:13:01.191Z,100256.06
2023-11-23T10:15:30.162Z,100227.31
2023-11-23T10:17:58.031Z,100216.66
2023-11-23T10:20:27.710Z,100212.52
2023-11-23T10:22:55.776Z,100220.48
2023-11-23T10:25:33.230Z,100224.48
2023-11-23T10:28:01.565Z,100222.48
2023-11-23T10:30:29.791Z,100226.13
2023-11-23T10:32:58.185Z,100217.15
2023-11-23T10:35:41.545Z,100205.58
2023-11-23T10:38:09.419Z,100189.22
2023-11-23T10:40:37.178Z,100181.81
2023-11-23T10:43:05.002Z,100168.25
2023-11-23T10:45:34.870Z,100162.17
2023-11-23T10:48:04.679Z,100156.42
2023-11-23T10:50:33.608Z,100142.38
2023-11-23T10:53:04.903Z,100136.70
2023-11-23T10:55:32.947Z,100121.35
2023-11-23T10:58:08.023Z,100124.44
2023-11-23T11:00:36.227Z,100117.73
2023-11-23T11:03:05.891Z,100102.33
2023-11-23T11:05:36.564Z,100094.92
2023-11-23T11:08:06.951Z,100086.55
2023-11-23T11:10:43.687Z,100091.64
2023-11-23T11:13:18.952Z,100081.19
2023-11-23T11:28:55.336Z,100033.09
2023-11-23T11:31:30.624Z,99993.95
2023-11-23T11:33:58.397Z,99972.98
2023-11-23T11:36:26.913Z,99967.80
2023-11-23T11:39:00.703Z,99978.30
2023-11-23T11:41:32.646Z,99968.27
2023-11-23T11:44:00.252Z,99966.45
2023-11-23T11:46:30.859Z,99960.91
2023-11-23T11:48:59.391Z,99951.90
2023-11-23T11:51:27.971Z,99944.95
2023-11-23T11:53:56.502Z,99937.56
2023-11-23T11:56:24.298Z,99935.92
2023-11-23T11:58:52.346Z,99928.05
2023-11-23T12:01:20.383Z,99916.35
2023-11-23T12:03:49.053Z,99910.23
2023-11-23T12:06:20.456Z,99888.62
2023-11-23T12:08:48.156Z,99878.84
2023-11-23T12:11:28.872Z,99871.45
2023-11-23T12:13:58.817Z,99869.58
2023-11-23T12:16:35.857Z,99856.16
2023-11-23T12:19:16.839Z,99848.45
2023-11-23T12:21:44.598Z,99836.64
2023-11-23T12:24:19.309Z,99821.88
2023-11-23T12:26:47.873Z,99814.63
2023-11-23T12:29:25.713Z,99806.66
2023-11-23T12:31:53.484Z,99801.96
2023-11-23T12:34:21.404Z,99798.99
2023-11-23T12:36:49.056Z,99779.39
2023-11-23T12:39:17.219Z,99771.66
2023-11-23T12:41:53.157Z,99765.17
2023-11-23T12:44:23.078Z,99755.73
2023-11-23T12:46:50.808Z,99736.61
2023-11-23T12:49:18.936Z,99728.54
2023-11-23T12:51:46.469Z,99720.65
2023-11-23T12:54:16.006Z,99716.29
2023-11-23T12:56:43.863Z,99709.42
2023-11-23T12:59:11.685Z,99702.88
2023-11-23T13:01:40.502Z,99700.08
2023-11-23T13:04:11.352Z,99703.02
2023-11-23T13:06:39.283Z,99692.71
2023-11-23T13:09:13.029Z,99693.17
2023-11-23T13:11:41.289Z,99679.05
2023-11-23T13:14:10.991Z,99657.73
2023-11-23T13:16:38.745Z,99648.61
2023-11-23T13:19:17.168Z,99644.95
2023-11-23T13:21:54.972Z,99640.27
2023-11-23T13:24:22.807Z,99624.10
2023-11-23T13:26:51.096Z,99607.65
2023-11-23T13:29:19.706Z,99597.15
2023-11-23T13:31:47.991Z,99588.24
2023-11-23T13:34:16.284Z,99576.07
2023-11-23T13:36:44.197Z,99573.36
2023-11-23T13:39:16.050Z,99563.19
2023-11-23T13:41:43.849Z,99554.38
2023-11-23T13:44:12.312Z,99544.91
2023-11-23T13:46:40.244Z,99528.30
2023-11-23T13:49:08.944Z,99514.30
2023-11-23T13:51:36.740Z,99502.11
2023-11-23T13:54:08.116Z,99495.02
2023-11-23T13:56:37.316Z,99487.60
2023-11-23T13:59:08.748Z,99481.23
2023-11-23T14:01:38.546Z,99473.52
2023-11-23T14:04:08.742Z,99463.76
2023-11-23T14:06:36.315Z,99454.53
2023-11-23T14:09:05.416Z,99446.80
2023-11-23T14:11:44.273Z,99443.84
2023-11-23T14:14:11.910Z,99436.14
2023-11-23T14:16:40.298Z,99436.20
2023-11-23T14:19:11.051Z,99422.96
2023-11-23T14:21:39.736Z,99430.13
2023-11-23T14:24:09.255Z,99409.44
2023-11-23T14:26:38.038Z,99396.08
2023-11-23T14:29:07.716Z,99380.98
2023-11-23T14:31:38.077Z,99362.39
2023-11-23T14:34:15.800Z,99362.64
2023-11-23T14:36:50.854Z,99353.27
2023-11-23T14:39:24.928Z,99332.55
2023-11-23T14:41:54.323Z,99324.44
2023-11-23T14:44:21.892Z,99307.33
2023-11-23T14:46:51.469Z,99312.97
2023-11-23T14:49:21.785Z,99307.98
2023-11-23T14:51:52.520Z,99302.44
2023-11-23T14:54:32.101Z,99288.17
2023-11-23T14:57:09.508Z,99288.30
2023-11-23T14:59:37.687Z,99282.64
2023-11-23T15:02:05.777Z,99276.11
2023-11-23T15:04:35.261Z,99272.80
2023-11-23T15:07:06.962Z,99263.77
2023-11-23T15:09:35.102Z,99261.34
2023-11-23T15:12:04.095Z,99252.80
2023-11-23T15:14:33.016Z,99236.84
2023-11-23T15:17:01.506Z,99222.48
2023-11-23T15:19:33.374Z,99203.70
2023-11-23T15:22:07.614Z,99190.81
2023-11-23T15:24:36.091Z,99179.58
2023-11-23T15:27:06.320Z,99179.23
2023-11-23T15:29:34.682Z,99186.55
2023-11-23T15:32:04.723Z,99188.27
2023-11-23T15:34:33.256Z,99175.83
2023-11-23T15:37:01.429Z,99167.27
2023-11-23T15:39:30.263Z,99151.45
2023-11-23T15:41:58.396Z,99149.57
2023-11-23T15:44:26.676Z,99141.80
2023-11-23T15:46:54.427Z,99136.31
2023-11-23T15:49:22.167Z,99130.40
2023-11-23T15:51:50.069Z,99129.44
2023-11-23T15:54:20.644Z,99116.96
2023-11-23T15:56:48.267Z,99106.25
2023-11-23T15:59:15.925Z,99099.11
2023-11-23T16:01:43.636Z,99100.06
2023-11-23T16:04:14.197Z,99095.10
2023-11-23T16:06:42.184Z,99084.84
2023-11-23T16:09:12.878Z,99076.39
2023-11-23T16:11:40.691Z,99076.08
2023-11-23T16:14:10.534Z,99071.63
2023-11-23T16:16:39.315Z,99064.31
2023-11-23T16:19:07.021Z,99062.32
2023-11-23T16:21:34.813Z,99052.37
2023-11-23T16:24:02.681Z,99032.44
2023-11-23T16:26:32.414Z,99024.09
2023-11-23T16:29:02.409Z,99024.55
2023-11-23T16:31:30.151Z,99005.68
2023-11-23T16:33:58.041Z,98998.54
2023-11-23T16:36:33.314Z,98993.51
2023-11-23T16:39:08.486Z,98990.45
2023-11-23T16:41:36.488Z,98983.34
2023-11-23T16:44:04.465Z,98980.45
2023-11-23T16:46:32.248Z,98971.19
2023-11-23T16:49:00.112Z,98967.16
2023-11-23T16:51:27.792Z,98958.98
2023-11-23T16:53:56.492Z,98946.38
2023-11-23T16:56:24.721Z,98937.71
2023-11-23T16:58:52.287Z,98933.22
2023-11-23T17:01:20.308Z,98935.11
2023-11-23T17:03:48.198Z,98932.68
2023-11-23T17:06:16.003Z,98922.50
2023-11-23T17:08:43.668Z,98917.01
2023-11-23T17:11:11.236Z,98920.58
2023-11-23T17:13:38.790Z,98901.02
2023-11-23T17:16:07.329Z,98897.05
2023-11-23T17:18:35.197Z,98889.50
2023-11-23T17:21:03.192Z,98877.80
2023-11-23T17:23:31.889Z,98883.67
2023-11-23T17:25:59.376Z,98867.95
2023-11-23T17:28:27.009Z,98860.22
2023-11-23T17:30:56.154Z,98859.90
2023-11-23T17:33:24.654Z,98847.15
2023-11-23T17:35:53.207Z,98847.64
2023-11-23T17:38:21.435Z,98847.05
2023-11-23T17:40:49.102Z,98861.45
2023-11-23T17:43:16.754Z,98856.23
2023-11-23T17:45:48.778Z,98839.17
2023-11-23T17:48:17.057Z,98828.26
2023-11-23T17:50:45.120Z,98829.64
2023-11-23T17:53:13.083Z,98813.39
2023-11-23T17:55:42.178Z,98815.92
2023-11-23T17:58:11.048Z,98805.45
2023-11-23T18:00:40.573Z,98806.17
2023-11-23T18:03:08.277Z,98793.10
2023-11-23T18:05:40.155Z,98790.97
2023-11-23T18:08:09.958Z,98783.44
2023-11-23T18:10:38.161Z,98779.95
2023-11-23T18:13:10.331Z,98780.31
2023-11-23T18:15:39.253Z,98779.89
2023-11-23T18:18:15.419Z,98773.94
2023-11-23T18:20:50.490Z,98762.48
2023-11-23T18:23:18.162Z,98746.88
2023-11-23T18:25:46.130Z,98740.56
2023-11-23T18:28:13.739Z,98741.17
2023-11-23T18:30:41.416Z,98737.64
2023-11-23T18:33:12.229Z,98737.64
2023-11-23T18:35:47.232Z,98728.80
2023-11-23T18:38:15.822Z,98713.56
2023-11-23T18:40:43.982Z,98720.34
2023-11-23T18:43:12.121Z,98710.50
2023-11-23T18:45:41.898Z,98712.84
2023-11-23T18:48:09.869Z,98713.96
2023-11-23T18:50:37.600Z,98714.75
2023-11-23T18:53:05.262Z,98710.01
2023-11-23T18:55:33.332Z,98718.98
2023-11-23T18:58:03.612Z,98713.44
2023-11-23T19:00:32.518Z,98718.44
2023-11-23T19:03:00.670Z,98713.31
2023-11-23T19:05:28.387Z,98707.07
2023-11-23T19:07:56.061Z,98697.38
2023-11-23T19:10:25.860Z,98691.61
2023-11-23T19:13:03.328Z,98693.02
2023-11-23T19:15:34.010Z,98682.68
2023-11-23T19:18:04.454Z,98672.83
2023-11-23T19:20:35.790Z,98672.07
2023-11-23T19:23:04.509Z,98673.58
2023-11-23T19:25:34.844Z,98664.74
2023-11-23T19:28:04.001Z,98656.14
2023-11-23T19:30:32.561Z,98653.52
2023-11-23T19:33:02.544Z,98653.31
2023-11-23T19:35:31.000Z,98652.67
2023-11-23T19:37:58.906Z,98640.48
2023-11-23T19:40:27.064Z,98638.88
2023-11-23T19:42:56.506Z,98626.29
2023-11-23T19:45:25.253Z,98635.27
2023-11-23T19:47:53.730Z,98629.77
2023-11-23T19:50:22.700Z,98624.26
2023-11-23T19:52:51.475Z,98612.36
2023-11-23T19:55:19.424Z,98613.57
2023-11-23T19:57:48.373Z,98610.89
2023-11-23T20:00:17.363Z,98604.30
2023-11-23T20:02:45.339Z,98603.58
2023-11-23T20:05:13.291Z,98598.66
2023-11-23T20:07:41.229Z,98592.76
2023-11-23T20:10:09.427Z,98588.79
2023-11-23T20:12:37.936Z,98584.70
2023-11-23T20:15:05.966Z,98586.45
2023-11-23T20:17:33.931Z,98584.79
2023-11-23T20:20:01.664Z,98573.48
2023-11-23T20:22:29.249Z,98579.84
2023-11-23T20:24:57.149Z,98566.89
2023-11-23T20:27:25.010Z,98562.38
2023-11-23T20:29:52.833Z,98553.66
2023-11-23T20:32:20.391Z,98553.11
2023-11-23T20:34:48.370Z,98546.95
2023-11-23T20:37:16.125Z,98542.91
2023-11-23T20:39:45.379Z,98532.91
2023-11-23T20:42:13.156Z,98530.17
2023-11-23T20:44:40.855Z,98539.19
2023-11-23T20:47:09.340Z,98532.60
2023-11-23T20:49:36.896Z,98522.90
2023-11-23T20:52:05.081Z,98514.61
2023-11-23T20:54:32.858Z,98510.50
2023-11-23T20:57:01.045Z,98508.96
2023-11-23T20:59:29.027Z,98510.27
2023-11-23T21:01:57.612Z,98508.69
2023-11-23T21:04:29.245Z,98501.03
2023-11-23T21:07:02.271Z,98489.80
2023-11-23T21:09:31.412Z,98486.79
2023-11-23T21:12:04.168Z,98477.18
2023-11-23T21:14:34.200Z,98466.30
2023-11-23T21:17:02.213Z,98458.18
2023-11-23T21:19:29.743Z,98460.66
2023-11-23T21:21:57.347Z,98455.49
2023-11-23T21:24:24.975Z,98453.69
2023-11-23T21:26:54.460Z,98446.36
2023-11-23T21:29:22.098Z,98441.39
2023-11-23T21:31:49.657Z,98444.19
2023-11-23T21:34:17.344Z,98429.03
2023-11-23T21:36:45.060Z,98420.77
2023-11-23T21:39:13.061Z,98420.51
2023-11-23T21:41:42.062Z,98417.30
2023-11-23T21:44:09.581Z,98408.93
2023-11-23T21:46:37.966Z,98408.30
2023-11-23T21:49:06.655Z,98405.02
2023-11-23T21:51:34.469Z,98400.81
2023-11-23T21:54:02.225Z,98398.17
2023-11-23T21:56:29.754Z,98385.23
2023-11-23T21:58:57.270Z,98379.58
2023-11-23T22:01:24.876Z,98379.65
2023-11-23T22:03:52.624Z,98369.00
2023-11-23T22:06:21.379Z,98367.36
2023-11-23T22:08:49.191Z,98361.81
2023-11-23T22:11:16.988Z,98360.76
2023-11-23T22:13:45.378Z,98355.52
2023-11-23T22:16:15.086Z,98350.70
2023-11-23T22:18:43.235Z,98346.52
2023-11-23T22:21:11.513Z,98344.53
2023-11-23T22:23:39.612Z,98342.30
2023-11-23T22:26:09.759Z,98336.52
2023-11-23T22:28:37.899Z,98329.23
2023-11-23T22:31:08.023Z,98321.17
2023-11-23T22:33:35.712Z,98316.45
2023-11-23T22:36:04.673Z,98311.34
2023-11-23T22:38:32.847Z,98307.09
2023-11-23T22:41:00.784Z,98298.16
2023-11-23T22:43:28.654Z,98297.58
2023-11-23T22:45:56.777Z,98300.22
2023-11-23T22:48:24.351Z,98285.04
2023-11-23T22:50:51.953Z,98288.89
2023-11-23T22:53:19.642Z,98278.61
2023-11-23T22:55:47.101Z,98271.27
2023-11-23T22:58:14.768Z,98263.38
2023-11-23T23:00:45.057Z,98259.58
2023-11-23T23:03:13.838Z,98250.16
2023-11-23T23:05:44.300Z,98246.00
2023-11-23T23:08:11.812Z,98238.58
2023-11-23T23:10:39.528Z,98237.17
2023-11-23T23:13:08.931Z,98234.59
2023-11-23T23:15:36.475Z,98227.55
2023-11-23T23:18:04.248Z,98223.08
2023-11-23T23:20:32.119Z,98227.11
2023-11-23T23:22:59.888Z,98223.84
2023-11-23T23:25:27.902Z,98214.72
2023-11-23T23:27:55.701Z,98208.93
2023-11-23T23:30:23.400Z,98204.52
2023-11-23T23:32:51.089Z,98204.70
2023-11-23T23:46:46.078Z,98175.30
2023-11-23T23:49:13.784Z,98171.64
2023-11-23T23:51:41.382Z,98176.39
2023-11-23T23:54:09.934Z,98170.20
2023-11-23T23:56:39.458Z,98163.19
2023-11-23T23:59:07.007Z,98150.92
